Time;durP1;ratioP1;P1;durP2;ratioP2;P2;SDS_P1;SDS_P2;PMS_P1;PMS_P2;Temp;Humidity;BMP_temperature;BMP_pressure;BME280_temperature;BME280_humidity;BME280_pressure;Samples;Min_cycle;Max_cycle;Signal;HPM_P1;HPM_P2
2021/06/21 00:01:30;;;;;;;;;;;;;;;19.86;65.08;100398.03;5113300;28;929;-41
2021/06/21 00:03:57;;;;;;;;;;;;;;;20.07;64.59;100399.25;5095743;28;795;-43
2021/06/21 00:06:22;;;;;;;;;;;;;;;19.98;64.25;100396.38;5096042;28;792;-41
2021/06/21 00:08:48;;;;;;;;;;;;;;;19.93;64.96;100399.22;5096488;28;1918;-41
2021/06/21 00:11:13;;;;;;;;;;;;;;;19.86;64.01;100389.75;5099473;28;957;-62
2021/06/21 00:13:39;;;;;;;;;;;;;;;19.63;64.73;100401.44;5119919;28;1237;-57
2021/06/21 00:16:04;;;;;;;;;;;;;;;19.69;64.78;100393.88;5101546;28;1368;-41
2021/06/21 00:18:30;;;;;;;;;;;;;;;19.74;64.98;100391.03;5119307;28;950;-53
2021/06/21 00:20:55;;;;;;;;;;;;;;;19.41;64.20;100393.00;5119892;28;744;-62
2021/06/21 00:23:21;;;;;;;;;;;;;;;19.21;61.73;100400.50;5120150;28;868;-42
2021/06/21 00:25:47;;;;;;;;;;;;;;;19.70;62.29;100392.75;5119984;28;788;-41
2021/06/21 00:28:13;;;;;;;;;;;;;;;19.99;63.86;100392.50;5119202;28;1909;-42
2021/06/21 00:30:38;;;;;;;;;;;;;;;20.34;64.29;100384.63;5120188;28;751;-40
2021/06/21 00:33:04;;;;;;;;;;;;;;;20.27;64.88;100369.59;5119435;28;966;-48
2021/06/21 00:35:29;;;;;;;;;;;;;;;20.08;65.69;100364.19;5119345;28;780;-52
2021/06/21 00:37:57;;;;;;;;;;;;;;;20.11;65.08;100367.16;5119422;28;898;-41
2021/06/21 00:40:22;;;;;;;;;;;;;;;19.86;61.24;100365.72;5119743;28;799;-41
2021/06/21 00:42:48;;;;;;;;;;;;;;;19.95;57.82;100365.81;5119596;28;755;-41
2021/06/21 00:45:13;;;;;;;;;;;;;;;19.96;57.85;100376.56;5119587;28;783;-41
2021/06/21 00:47:39;;;;;;;;;;;;;;;19.82;57.86;100376.56;5118986;28;997;-61
2021/06/21 00:50:05;;;;;;;;;;;;;;;19.71;58.28;100375.06;5119086;28;1977;-41
2021/06/21 00:52:30;;;;;;;;;;;;;;;19.64;59.20;100382.94;5119398;28;723;-60
2021/06/21 00:55:02;;;;;;;;;;;;;;;19.63;58.23;100370.28;5119487;28;791;-41
2021/06/21 00:57:28;;;;;;;;;;;;;;;19.74;59.94;100380.00;5118783;28;803;-41
2021/06/21 00:59:54;;;;;;;;;;;;;;;19.65;61.26;100371.59;5119197;28;804;-44
2021/06/21 01:02:21;;;;;;;;;;;;;;;19.70;61.22;100375.38;5119032;28;938;-43
2021/06/21 01:04:46;;;;;;;;;;;;;;;19.67;62.20;100369.34;5118720;28;842;-41
2021/06/21 01:07:12;;;;;;;;;;;;;;;19.70;61.81;100373.44;5119566;28;764;-42
2021/06/21 01:09:37;;;;;;;;;;;;;;;19.74;61.57;100368.97;5100332;28;1917;-42
2021/06/21 01:12:10;;;;;;;;;;;;;;;19.78;62.90;100366.38;5097090;28;1103;-41
2021/06/21 01:14:42;;;;;;;;;;;;;;;19.81;63.67;100363.88;5099048;28;729;-41
2021/06/21 01:17:18;;;;;;;;;;;;;;;19.94;63.17;100356.72;5096718;28;1198;-57
2021/06/21 01:19:43;;;;;;;;;;;;;;;19.93;63.47;100368.88;5097898;28;787;-55
2021/06/21 01:22:27;;;;;;;;;;;;;;;19.93;63.31;100368.06;5098083;28;842;-56
2021/06/21 01:25:12;;;;;;;;;;;;;;;19.85;62.92;100364.06;5098235;28;807;-40
2021/06/21 01:27:37;;;;;;;;;;;;;;;19.70;64.25;100365.16;5098968;28;813;-40
2021/06/21 01:30:02;;;;;;;;;;;;;;;19.70;65.45;100365.16;5098133;28;1986;-41
2021/06/21 01:32:48;;;;;;;;;;;;;;;19.76;64.83;100366.69;5108805;28;996;-53
2021/06/21 01:35:18;;;;;;;;;;;;;;;19.88;64.27;100363.47;5100692;28;735;-41
2021/06/21 01:37:44;;;;;;;;;;;;;;;19.85;63.79;100363.25;5100817;28;825;-41
2021/06/21 01:40:10;;;;;;;;;;;;;;;19.90;64.42;100363.19;5100127;28;772;-50
2021/06/21 01:42:39;;;;;;;;;;;;;;;19.95;64.10;100361.13;5119067;28;740;-41
2021/06/21 01:45:05;;;;;;;;;;;;;;;20.02;63.89;100363.50;5100537;28;799;-41
2021/06/21 01:47:30;;;;;;;;;;;;;;;20.19;62.65;100362.88;5095990;28;1006;-41
2021/06/21 01:49:56;;;;;;;;;;;;;;;19.94;63.81;100353.97;5097763;28;1910;-41
2021/06/21 01:52:21;;;;;;;;;;;;;;;19.87;64.28;100355.50;5097996;28;799;-41
2021/06/21 01:54:53;;;;;;;;;;;;;;;20.10;62.74;100348.94;5079462;28;831;-63
2021/06/21 01:57:22;;;;;;;;;;;;;;;20.08;61.96;100362.25;5097859;28;768;-49
2021/06/21 01:59:51;;;;;;;;;;;;;;;19.91;63.28;100349.06;5096361;28;1424;-43
2021/06/21 02:02:20;;;;;;;;;;;;;;;20.19;62.16;100362.88;5090297;28;942;-45
2021/06/21 02:04:45;;;;;;;;;;;;;;;19.96;63.05;100365.53;5097654;28;953;-63
2021/06/21 02:07:10;;;;;;;;;;;;;;;19.75;64.43;100356.78;5097714;28;752;-42
2021/06/21 02:09:36;;;;;;;;;;;;;;;19.95;63.71;100365.81;5097305;28;1909;-43
2021/06/21 02:12:01;;;;;;;;;;;;;;;19.99;63.50;100358.56;5104052;28;1202;-40
2021/06/21 02:14:28;;;;;;;;;;;;;;;19.99;62.66;100358.56;5099870;28;859;-40
2021/06/21 02:16:54;;;;;;;;;;;;;;;19.86;63.02;100364.91;5117281;28;1204;-65
2021/06/21 02:19:26;;;;;;;;;;;;;;;20.04;63.46;100363.97;5117188;28;799;-56
2021/06/21 02:21:51;;;;;;;;;;;;;;;20.10;63.35;100361.94;5117648;28;823;-40
2021/06/21 02:24:20;;;;;;;;;;;;;;;20.06;63.67;100360.91;5099145;28;881;-65
2021/06/21 02:26:45;;;;;;;;;;;;;;;19.66;62.98;100369.66;5117426;28;858;-40
2021/06/21 02:29:11;;;;;;;;;;;;;;;19.70;64.39;100378.13;5117162;28;1988;-64
2021/06/21 02:31:36;;;;;;;;;;;;;;;19.74;64.71;100376.41;5098833;28;955;-39
2021/06/21 02:34:02;;;;;;;;;;;;;;;19.60;63.99;100384.66;5098246;28;828;-41
2021/06/21 02:36:30;;;;;;;;;;;;;;;19.35;62.97;100388.69;5118030;28;816;-42
2021/06/21 02:38:57;;;;;;;;;;;;;;;19.17;62.08;100387.59;5117723;28;786;-41
2021/06/21 02:41:22;;;;;;;;;;;;;;;19.10;64.22;100388.81;5116692;28;1000;-62
2021/06/21 02:43:51;;;;;;;;;;;;;;;19.30;64.44;100387.63;5117390;28;815;-42
2021/06/21 02:46:16;;;;;;;;;;;;;;;19.31;64.10;100382.97;5116893;28;1009;-45
2021/06/21 02:48:42;;;;;;;;;;;;;;;19.36;63.79;100391.13;5116780;28;1980;-42
2021/06/21 02:51:08;;;;;;;;;;;;;;;19.51;64.13;100394.75;5098587;28;1164;-41
2021/06/21 02:53:37;;;;;;;;;;;;;;;19.59;63.56;100400.38;5099073;28;759;-42
2021/06/21 02:56:26;;;;;;;;;;;;;;;19.53;63.77;100395.25;5116684;28;771;-42
2021/06/21 02:58:57;;;;;;;;;;;;;;;19.52;64.60;100393.63;5098846;28;791;-46
2021/06/21 03:01:22;;;;;;;;;;;;;;;19.63;62.88;100386.81;5098313;28;993;-63
2021/06/21 03:03:48;;;;;;;;;;;;;;;19.43;63.15;100385.22;5098673;28;736;-41
2021/06/21 03:06:14;;;;;;;;;;;;;;;19.58;64.24;100379.44;5098913;28;815;-42
2021/06/21 03:08:39;;;;;;;;;;;;;;;19.60;64.07;100371.69;5098574;28;1917;-51
2021/06/21 03:11:05;;;;;;;;;;;;;;;19.69;63.99;100371.81;5098610;28;875;-42
2021/06/21 03:13:30;;;;;;;;;;;;;;;19.70;64.39;100370.69;5079981;28;1218;-42
2021/06/21 03:15:56;;;;;;;;;;;;;;;19.59;64.94;100361.78;5078253;28;1100;-41
2021/06/21 03:18:22;;;;;;;;;;;;;;;20.03;62.70;100361.53;5095923;28;1059;-43
2021/06/21 03:21:05;;;;;;;;;;;;;;;19.95;62.73;100357.53;5116641;28;806;-41
2021/06/21 03:23:31;;;;;;;;;;;;;;;19.89;63.46;100359.59;5098297;28;744;-61
2021/06/21 03:25:58;;;;;;;;;;;;;;;19.98;63.63;100356.94;5117046;28;782;-40
2021/06/21 03:28:23;;;;;;;;;;;;;;;19.80;64.65;100362.25;5116517;28;1990;-42
2021/06/21 03:30:53;;;;;;;;;;;;;;;19.96;64.51;100364.69;5116408;28;791;-50
2021/06/21 03:33:19;;;;;;;;;;;;;;;20.05;62.96;100357.34;5098294;28;1085;-42
2021/06/21 03:35:44;;;;;;;;;;;;;;;20.04;63.79;100360.41;5116685;28;771;-42
2021/06/21 03:38:18;;;;;;;;;;;;;;;19.92;64.60;100358.16;5116359;28;882;-47
2021/06/21 03:40:45;;;;;;;;;;;;;;;19.73;62.95;100349.97;5116353;28;787;-59
2021/06/21 03:43:10;;;;;;;;;;;;;;;19.56;64.63;100356.03;5116914;28;801;-43
2021/06/21 03:45:36;;;;;;;;;;;;;;;19.91;65.22;100356.50;5120709;28;743;-47
2021/06/21 03:48:02;;;;;;;;;;;;;;;19.95;65.40;100352.00;5119952;28;1005;-62
2021/06/21 03:50:27;;;;;;;;;;;;;;;20.05;63.87;100351.00;5103054;28;1977;-61
2021/06/21 03:52:53;;;;;;;;;;;;;;;20.26;62.16;100362.41;5100045;28;795;-44
2021/06/21 03:55:18;;;;;;;;;;;;;;;19.97;62.37;100360.81;5099895;28;767;-43
2021/06/21 03:57:45;;;;;;;;;;;;;;;19.99;63.91;100355.81;5099737;28;799;-69
2021/06/21 04:00:18;;;;;;;;;;;;;;;19.95;65.48;100368.56;5089811;28;1436;-47
2021/06/21 04:02:44;;;;;;;;;;;;;;;20.16;64.63;100363.44;5112354;28;954;-42
2021/06/21 04:05:10;;;;;;;;;;;;;;;20.10;65.08;100370.22;5103720;28;832;-64
2021/06/21 04:07:35;;;;;;;;;;;;;;;20.02;64.98;100374.53;5099836;28;755;-65
2021/06/21 04:10:02;;;;;;;;;;;;;;;20.29;63.51;100367.34;5099799;28;1967;-64
2021/06/21 04:12:29;;;;;;;;;;;;;;;20.38;62.78;100371.00;5109352;28;1100;-42
2021/06/21 04:14:54;;;;;;;;;;;;;;;20.35;62.54;100377.16;5120445;28;809;-42
2021/06/21 04:17:20;;;;;;;;;;;;;;;20.16;63.07;100367.06;5119136;28;1035;-55
2021/06/21 04:19:45;;;;;;;;;;;;;;;20.25;63.45;100369.91;5120094;28;828;-41
2021/06/21 04:22:10;;;;;;;;;;;;;;;20.35;64.04;100377.94;5120020;28;863;-63
2021/06/21 04:24:36;;;;;;;;;;;;;;;20.27;64.41;100380.63;5119910;28;882;-58
2021/06/21 04:27:01;;;;;;;;;;;;;;;20.39;62.83;100378.16;5119742;28;755;-63
2021/06/21 04:29:27;;;;;;;;;;;;;;;20.17;61.89;100371.44;5119764;28;1902;-41
2021/06/21 04:31:53;;;;;;;;;;;;;;;20.17;59.10;100376.97;5119001;28;1009;-56
2021/06/21 04:34:19;;;;;;;;;;;;;;;20.14;60.64;100387.81;5101426;28;823;-44
2021/06/21 04:36:44;;;;;;;;;;;;;;;20.38;62.52;100392.28;5119681;28;787;-67
2021/06/21 04:39:10;;;;;;;;;;;;;;;20.39;63.10;100382.88;5119198;28;755;-47
2021/06/21 04:41:35;;;;;;;;;;;;;;;19.78;62.99;100386.53;5119712;28;775;-44
2021/06/21 04:44:01;;;;;;;;;;;;;;;19.83;63.12;100383.69;5119709;28;500;-44
2021/06/21 04:46:29;;;;;;;;;;;;;;;20.07;63.28;100387.41;5119019;28;962;-50
2021/06/21 04:48:55;;;;;;;;;;;;;;;20.30;64.21;100382.75;5119270;28;1913;-52
2021/06/21 04:51:21;;;;;;;;;;;;;;;20.25;64.66;100383.69;5119572;28;823;-46
2021/06/21 04:53:47;;;;;;;;;;;;;;;20.22;64.02;100384.31;5118867;28;746;-44
2021/06/21 04:56:13;;;;;;;;;;;;;;;20.63;61.47;100388.16;5119305;28;784;-40
2021/06/21 04:58:39;;;;;;;;;;;;;;;20.25;62.80;100386.47;5119237;28;753;-45
2021/06/21 05:01:06;;;;;;;;;;;;;;;20.21;61.90;100381.88;5119123;28;882;-40
2021/06/21 05:03:32;;;;;;;;;;;;;;;20.10;61.74;100384.00;5119495;28;1048;-39
2021/06/21 05:05:57;;;;;;;;;;;;;;;20.05;61.73;100384.94;5119275;28;799;-63
2021/06/21 05:08:23;;;;;;;;;;;;;;;20.12;61.40;100379.03;5110894;28;1972;-40
2021/06/21 05:10:48;;;;;;;;;;;;;;;20.13;62.07;100375.94;5098744;28;786;-40
2021/06/21 05:13:14;;;;;;;;;;;;;;;20.18;62.54;100366.75;5115159;28;1197;-65
2021/06/21 05:15:39;;;;;;;;;;;;;;;20.34;62.40;100376.34;5118487;28;755;-67
2021/06/21 05:18:05;;;;;;;;;;;;;;;20.16;63.36;100380.84;5118195;28;1018;-41
2021/06/21 05:20:30;;;;;;;;;;;;;;;20.23;63.29;100374.94;5100785;28;972;-59
2021/06/21 05:22:56;;;;;;;;;;;;;;;20.39;63.64;100378.16;5118682;28;775;-53
2021/06/21 05:25:21;;;;;;;;;;;;;;;20.43;64.78;100378.38;5118775;28;771;-55
2021/06/21 05:27:47;;;;;;;;;;;;;;;20.62;65.10;100381.81;5118822;28;807;-55
2021/06/21 05:30:12;;;;;;;;;;;;;;;20.73;65.67;100393.47;5118269;28;1982;-62
2021/06/21 05:32:38;;;;;;;;;;;;;;;20.65;66.54;100406.06;5117986;28;954;-46
2021/06/21 05:35:04;;;;;;;;;;;;;;;20.96;65.67;100396.28;5118755;28;802;-41
2021/06/21 05:37:30;;;;;;;;;;;;;;;21.00;66.12;100397.28;5117988;28;823;-47
2021/06/21 05:39:56;;;;;;;;;;;;;;;21.02;66.13;100392.25;5118574;28;756;-55
2021/06/21 05:42:22;;;;;;;;;;;;;;;20.93;64.76;100402.41;5118248;28;740;-55
2021/06/21 05:44:48;;;;;;;;;;;;;;;20.78;67.02;100401.66;5118012;28;867;-47
2021/06/21 05:47:14;;;;;;;;;;;;;;;20.61;66.88;100398.69;5117994;28;1009;-40
2021/06/21 05:49:40;;;;;;;;;;;;;;;20.39;65.94;100400.25;5100048;28;1891;-52
2021/06/21 05:52:05;;;;;;;;;;;;;;;19.98;63.90;100401.91;5118170;28;846;-39
2021/06/21 05:54:31;;;;;;;;;;;;;;;19.59;62.87;100405.09;5118117;28;847;-38
2021/06/21 05:56:56;;;;;;;;;;;;;;;19.53;63.12;100400.78;5117987;28;759;-40
2021/06/21 05:59:22;;;;;;;;;;;;;;;19.49;64.19;100417.94;5117972;28;803;-39
2021/06/21 06:01:47;;;;;;;;;;;;;;;19.59;64.44;100419.69;5117627;28;982;-38
2021/06/21 06:04:13;;;;;;;;;;;;;;;19.54;64.15;100418.97;5118008;28;752;-67
2021/06/21 06:06:38;;;;;;;;;;;;;;;19.56;63.54;100422.22;5117485;28;739;-38
2021/06/21 06:09:04;;;;;;;;;;;;;;;19.35;63.21;100421.75;5117817;28;1974;-61
2021/06/21 06:11:29;;;;;;;;;;;;;;;19.50;64.26;100416.00;5099397;28;1280;-66
2021/06/21 06:13:55;;;;;;;;;;;;;;;19.79;66.11;100426.81;5117286;28;835;-40
2021/06/21 06:16:20;;;;;;;;;;;;;;;20.08;66.50;100422.97;5117273;28;1078;-40
2021/06/21 06:18:46;;;;;;;;;;;;;;;20.21;67.12;100426.03;5117405;28;791;-67
2021/06/21 06:21:12;;;;;;;;;;;;;;;20.38;66.32;100417.94;5117538;28;846;-41
2021/06/21 06:23:38;;;;;;;;;;;;;;;20.31;65.70;100428.59;5117433;28;801;-39
2021/06/21 06:26:03;;;;;;;;;;;;;;;20.21;65.41;100428.81;5099158;28;1334;-39
2021/06/21 06:28:29;;;;;;;;;;;;;;;20.39;65.98;100421.53;5117378;28;1905;-39
2021/06/21 06:30:54;;;;;;;;;;;;;;;20.40;67.71;100426.75;5117391;28;846;-66
2021/06/21 06:33:20;;;;;;;;;;;;;;;20.14;69.38;100420.94;5116650;28;1008;-39
2021/06/21 06:35:46;;;;;;;;;;;;;;;20.42;67.25;100423.69;5117660;28;747;-66
2021/06/21 06:38:11;;;;;;;;;;;;;;;20.24;65.52;100417.16;5117068;28;771;-66
2021/06/21 06:40:36;;;;;;;;;;;;;;;20.25;62.33;100421.53;5117251;28;786;-62
2021/06/21 06:43:02;;;;;;;;;;;;;;;20.17;60.22;100423.91;5117617;28;807;-65
2021/06/21 06:45:27;;;;;;;;;;;;;;;20.37;61.46;100416.34;5117140;28;810;-39
2021/06/21 06:47:53;;;;;;;;;;;;;;;20.48;63.42;100417.75;5116905;28;1004;-66
2021/06/21 06:50:18;;;;;;;;;;;;;;;20.52;65.31;100410.47;5117756;28;1968;-40
2021/06/21 06:52:44;;;;;;;;;;;;;;;20.50;66.04;100415.47;5117371;28;910;-43
2021/06/21 06:57:54;;;;;;;;;;;;;;;20.64;63.26;100417.41;5117246;28;723;-39
2021/06/21 07:00:19;;;;;;;;;;;;;;;20.60;61.42;100424.69;5097855;28;814;-39
2021/06/21 07:02:45;;;;;;;;;;;;;;;20.34;59.50;100425.22;5117311;28;954;-42
2021/06/21 07:05:11;;;;;;;;;;;;;;;20.33;57.95;100429.91;5117385;28;723;-62
2021/06/21 07:07:36;;;;;;;;;;;;;;;20.35;60.27;100433.19;5116653;28;772;-41
2021/06/21 07:10:02;;;;;;;;;;;;;;;20.00;62.71;100432.75;5117057;28;1906;-60
2021/06/21 07:12:27;;;;;;;;;;;;;;;20.23;64.17;100435.66;5106806;28;1253;-49
2021/06/21 07:14:53;;;;;;;;;;;;;;;20.56;65.04;100432.75;5095856;28;836;-47
2021/06/21 07:17:18;;;;;;;;;;;;;;;20.73;64.85;100437.66;5105611;28;1180;-59
2021/06/21 07:19:44;;;;;;;;;;;;;;;20.64;63.86;100434.78;5116600;28;837;-57
2021/06/21 07:22:09;;;;;;;;;;;;;;;20.50;62.01;100434.81;5116409;28;747;-44
2021/06/21 07:24:35;;;;;;;;;;;;;;;20.40;59.13;100429.50;5116569;28;803;-44
2021/06/21 07:27:00;;;;;;;;;;;;;;;20.38;57.83;100434.50;5116770;28;736;-43
2021/06/21 07:29:26;;;;;;;;;;;;;;;20.33;59.39;100437.41;5116226;28;1972;-44
2021/06/21 07:31:53;;;;;;;;;;;;;;;20.46;60.83;100436.56;5116172;28;966;-62
2021/06/21 07:34:19;;;;;;;;;;;;;;;20.55;61.77;100436.63;5116700;28;796;-46
2021/06/21 07:36:44;;;;;;;;;;;;;;;20.46;63.16;100436.56;5116144;28;832;-47
2021/06/21 07:39:10;;;;;;;;;;;;;;;20.60;63.29;100433.78;5116597;28;839;-44
2021/06/21 07:41:35;;;;;;;;;;;;;;;20.71;63.50;100442.69;5116419;28;806;-45
2021/06/21 07:44:00;;;;;;;;;;;;;;;20.72;63.90;100438.81;5116156;28;771;-44
2021/06/21 07:46:27;;;;;;;;;;;;;;;20.78;64.10;100440.31;5116491;28;1006;-45
2021/06/21 07:48:52;;;;;;;;;;;;;;;20.75;64.57;100440.97;5116383;28;1934;-43
2021/06/21 07:51:19;;;;;;;;;;;;;;;20.71;64.84;100439.94;5116539;28;873;-45
2021/06/21 07:53:46;;;;;;;;;;;;;;;20.94;64.35;100446.31;5116716;28;767;-46
2021/06/21 07:56:13;;;;;;;;;;;;;;;20.85;64.97;100449.00;5116294;28;781;-44
2021/06/21 07:58:39;;;;;;;;;;;;;;;20.87;64.95;100447.88;5116128;28;858;-44
2021/06/21 08:01:05;;;;;;;;;;;;;;;20.84;65.10;100444.59;5116640;28;746;-44
2021/06/21 08:03:30;;;;;;;;;;;;;;;20.90;65.04;100447.25;5115735;28;958;-45
2021/06/21 08:06:01;;;;;;;;;;;;;;;21.00;64.99;100450.63;5115947;28;806;-44
2021/06/21 08:08:26;;;;;;;;;;;;;;;20.97;65.26;100458.69;5097527;28;820;-45
2021/06/21 08:10:51;;;;;;;;;;;;;;;20.52;65.24;100453.84;5116053;28;1973;-45
2021/06/21 08:13:17;;;;;;;;;;;;;;;20.14;64.70;100449.34;5116245;28;1205;-50
2021/06/21 08:15:42;;;;;;;;;;;;;;;19.79;63.67;100446.13;5116246;28;879;-60
2021/06/21 08:18:08;;;;;;;;;;;;;;;19.75;62.44;100447.81;5093638;28;1122;-61
2021/06/21 08:20:34;;;;;;;;;;;;;;;19.37;61.81;100447.91;5096204;28;810;-44
2021/06/21 08:22:59;;;;;;;;;;;;;;;19.11;60.93;100441.97;5095946;28;769;-45
2021/06/21 08:25:24;;;;;;;;;;;;;;;18.80;60.66;100459.75;5095689;28;813;-48
2021/06/21 08:27:50;;;;;;;;;;;;;;;19.10;62.29;100448.63;5095655;28;731;-49
2021/06/21 08:30:16;;;;;;;;;;;;;;;19.56;64.33;100449.81;5097677;28;1917;-44
2021/06/21 08:32:41;;;;;;;;;;;;;;;19.59;66.58;100452.00;5111850;28;965;-45
2021/06/21 08:35:09;;;;;;;;;;;;;;;19.78;67.50;100458.28;5119530;28;766;-51
2021/06/21 08:37:35;;;;;;;;;;;;;;;19.87;67.94;100455.66;5119750;28;739;-64
2021/06/21 08:40:01;;;;;;;;;;;;;;;19.76;68.17;100454.97;5120108;28;800;-45
2021/06/21 08:42:26;;;;;;;;;;;;;;;20.07;67.90;100453.63;5101170;28;898;-44
2021/06/21 08:44:52;;;;;;;;;;;;;;;20.31;68.23;100453.44;5120003;28;775;-44
2021/06/21 08:47:19;;;;;;;;;;;;;;;20.24;68.96;100458.56;5118955;28;965;-52
2021/06/21 08:49:45;;;;;;;;;;;;;;;20.34;69.17;100459.19;5101251;28;1917;-44
2021/06/21 08:52:12;;;;;;;;;;;;;;;20.51;68.66;100461.31;5119511;28;752;-45
2021/06/21 08:54:37;;;;;;;;;;;;;;;20.77;67.96;100463.56;5119480;28;767;-43
2021/06/21 08:57:03;;;;;;;;;;;;;;;20.70;68.53;100460.41;5118882;28;789;-45
2021/06/21 08:59:28;;;;;;;;;;;;;;;20.74;68.41;100458.66;5119391;28;795;-46
2021/06/21 09:01:54;;;;;;;;;;;;;;;20.94;67.86;100462.91;5119104;28;933;-62
2021/06/21 09:04:20;;;;;;;;;;;;;;;20.83;68.10;100459.56;5119293;28;787;-45
2021/06/21 09:06:45;;;;;;;;;;;;;;;20.95;67.79;100463.75;5100684;28;779;-43
2021/06/21 09:09:11;;;;;;;;;;;;;;;20.75;67.13;100457.53;5100563;28;1914;-43
2021/06/21 09:11:45;;;;;;;;;;;;;;;20.39;65.02;100455.50;5115982;28;1126;-43
2021/06/21 09:14:26;;;;;;;;;;;;;;;20.09;62.72;100456.91;5098476;28;771;-43
2021/06/21 09:16:54;;;;;;;;;;;;;;;19.53;62.05;100458.69;5103304;28;999;-43
2021/06/21 09:19:20;;;;;;;;;;;;;;;19.24;60.82;100459.72;5118931;28;733;-57
2021/06/21 09:21:45;;;;;;;;;;;;;;;19.19;59.31;100451.53;5118714;28;795;-47
2021/06/21 09:24:17;;;;;;;;;;;;;;;19.11;58.51;100453.84;5119150;28;763;-44
2021/06/21 09:26:42;;;;;;;;;;;;;;;18.94;59.09;100462.63;5118184;28;748;-43
2021/06/21 09:29:08;;;;;;;;;;;;;;;19.05;60.33;100451.44;5118590;28;1913;-46
2021/06/21 09:31:51;;;;;;;;;;;;;;;19.44;62.39;100456.63;5118200;28;1037;-43
2021/06/21 09:34:17;;;;;;;;;;;;;;;19.85;64.16;100452.38;5118206;28;755;-47
2021/06/21 09:36:43;;;;;;;;;;;;;;;20.13;65.33;100455.16;5118632;28;798;-45
2021/06/21 09:39:23;;;;;;;;;;;;;;;20.39;65.97;100458.25;5118551;28;831;-44
2021/06/21 09:42:08;;;;;;;;;;;;;;;20.73;66.05;100454.25;5117479;28;783;-56
2021/06/21 09:44:37;;;;;;;;;;;;;;;20.70;66.72;100449.34;5118777;28;793;-43
2021/06/21 09:47:29;;;;;;;;;;;;;;;20.90;66.93;100442.56;5117774;28;1005;-43
2021/06/21 09:49:55;;;;;;;;;;;;;;;20.83;66.72;100448.50;5115007;28;1921;-42
2021/06/21 09:52:39;;;;;;;;;;;;;;;20.21;64.17;100448.94;5118334;28;823;-42
2021/06/21 09:55:23;;;;;;;;;;;;;;;19.78;60.36;100455.50;5118097;28;795;-60
2021/06/21 09:58:04;;;;;;;;;;;;;;;19.49;61.44;100453.78;5117949;28;767;-44
2021/06/21 10:00:30;;;;;;;;;;;;;;;19.42;63.94;100456.13;5118161;28;790;-44
2021/06/21 10:03:08;;;;;;;;;;;;;;;19.62;64.43;100451.38;5117737;28;1025;-44
2021/06/21 10:05:35;;;;;;;;;;;;;;;19.65;63.82;100453.53;5117954;28;766;-44
2021/06/21 10:08:01;;;;;;;;;;;;;;;19.50;63.59;100446.31;5117777;28;837;-46
2021/06/21 10:10:27;;;;;;;;;;;;;;;19.55;62.91;100442.69;5117631;28;1968;-44
2021/06/21 10:12:53;;;;;;;;;;;;;;;19.53;63.70;100442.16;5086071;28;1154;-43
2021/06/21 10:15:18;;;;;;;;;;;;;;;19.86;65.27;100440.22;5097485;28;815;-44
2021/06/21 10:17:44;;;;;;;;;;;;;;;20.08;65.78;100439.53;5109668;28;1101;-44
2021/06/21 10:20:10;;;;;;;;;;;;;;;19.91;67.45;100448.41;5117531;28;760;-44
2021/06/21 10:22:36;;;;;;;;;;;;;;;20.17;66.85;100448.75;5117750;28;759;-43
2021/06/21 10:25:01;;;;;;;;;;;;;;;20.24;65.98;100450.28;5117442;28;771;-43
2021/06/21 10:27:27;;;;;;;;;;;;;;;20.12;65.49;100448.84;5117089;28;748;-44
2021/06/21 10:29:55;;;;;;;;;;;;;;;20.18;64.78;100453.13;5117359;28;1910;-43
2021/06/21 10:32:20;;;;;;;;;;;;;;;20.22;65.08;100453.34;5116984;28;982;-46
2021/06/21 10:34:46;;;;;;;;;;;;;;;20.40;65.70;100446.09;5099044;28;1135;-44
2021/06/21 10:37:22;;;;;;;;;;;;;;;20.55;66.23;100449.66;5117209;28;783;-46
2021/06/21 10:39:54;;;;;;;;;;;;;;;20.42;67.79;100448.53;5117381;28;799;-43
2021/06/21 10:42:20;;;;;;;;;;;;;;;20.43;68.23;100453.75;5117688;28;767;-42
2021/06/21 10:44:47;;;;;;;;;;;;;;;20.51;68.25;100441.97;5117142;28;751;-44
2021/06/21 10:47:25;;;;;;;;;;;;;;;20.69;68.06;100453.22;5116797;28;966;-44
2021/06/21 10:49:56;;;;;;;;;;;;;;;20.75;68.08;100452.00;5116775;28;1961;-46
2021/06/21 10:52:32;;;;;;;;;;;;;;;20.61;68.78;100446.47;5117255;28;867;-44
2021/06/21 10:55:16;;;;;;;;;;;;;;;20.71;68.60;100448.22;5098365;28;819;-46
2021/06/21 10:57:41;;;;;;;;;;;;;;;20.86;68.14;100441.56;5116903;28;764;-46
2021/06/21 11:00:10;;;;;;;;;;;;;;;20.69;68.84;100444.94;5116935;28;732;-45
2021/06/21 11:02:36;;;;;;;;;;;;;;;20.81;68.60;100447.19;5098147;28;1306;-45
2021/06/21 11:05:02;;;;;;;;;;;;;;;20.67;66.92;100444.41;5116952;28;807;-44
2021/06/21 11:07:27;;;;;;;;;;;;;;;20.26;64.05;100454.38;5116849;28;743;-44
2021/06/21 11:09:57;;;;;;;;;;;;;;;19.64;61.58;100446.34;5116535;28;1913;-44
2021/06/21 11:12:27;;;;;;;;;;;;;;;19.37;58.64;100438.84;5117084;28;1241;-44
2021/06/21 11:15:18;;;;;;;;;;;;;;;19.10;56.12;100435.66;5117139;28;810;-46
2021/06/21 11:17:49;;;;;;;;;;;;;;;19.00;56.54;100437.75;5112094;28;1607;-45
2021/06/21 11:20:34;;;;;;;;;;;;;;;19.28;58.81;100442.28;5116671;28;795;-45
2021/06/21 11:23:01;;;;;;;;;;;;;;;19.65;61.29;100436.97;5116889;28;743;-45
2021/06/21 11:25:26;;;;;;;;;;;;;;;19.68;63.54;100436.38;5116819;28;760;-45
2021/06/21 11:27:52;;;;;;;;;;;;;;;19.74;64.23;100434.31;5116490;28;808;-46
2021/06/21 11:30:20;;;;;;;;;;;;;;;19.67;64.53;100440.25;5116589;28;1909;-50
2021/06/21 11:32:56;;;;;;;;;;;;;;;19.71;65.66;100438.50;5116001;28;961;-45
2021/06/21 11:35:40;;;;;;;;;;;;;;;19.88;67.66;100435.22;5098478;28;994;-45
2021/06/21 11:38:24;;;;;;;;;;;;;;;20.05;67.72;100440.16;5116614;28;815;-44
2021/06/21 11:41:08;;;;;;;;;;;;;;;20.02;66.91;100440.75;5116408;28;775;-45
2021/06/21 11:43:47;;;;;;;;;;;;;;;19.89;65.80;100445.13;5116764;28;819;-45
2021/06/21 11:46:32;;;;;;;;;;;;;;;20.07;65.10;100446.16;5116418;28;1012;-45
2021/06/21 11:49:11;;;;;;;;;;;;;;;19.99;67.36;100435.81;5081640;28;1909;-46
2021/06/21 11:51:36;;;;;;;;;;;;;;;20.27;67.81;100430.31;5096461;28;759;-44
2021/06/21 11:54:02;;;;;;;;;;;;;;;20.32;68.88;100433.81;5096228;28;751;-46
2021/06/21 11:56:28;;;;;;;;;;;;;;;20.52;68.31;100427.06;5095736;28;846;-45
2021/06/21 11:58:54;;;;;;;;;;;;;;;20.50;68.03;100431.25;5095899;28;759;-48
2021/06/21 12:01:20;;;;;;;;;;;;;;;20.45;66.77;100428.59;5097240;28;943;-45
2021/06/21 12:03:45;;;;;;;;;;;;;;;20.17;65.78;100425.81;5116109;28;811;-45
2021/06/21 12:06:11;;;;;;;;;;;;;;;20.11;63.39;100427.88;5119974;28;821;-46
2021/06/21 12:08:37;;;;;;;;;;;;;;;19.95;62.18;100423.75;5120231;28;821;-46
2021/06/21 12:11:24;;;;;;;;;;;;;;;19.97;64.38;100427.06;5119801;28;1975;-44
2021/06/21 12:13:56;;;;;;;;;;;;;;;20.06;65.94;100421.63;5099938;28;846;-44
2021/06/21 12:16:21;;;;;;;;;;;;;;;20.24;66.82;100423.47;5100846;28;1107;-46
2021/06/21 12:18:51;;;;;;;;;;;;;;;20.30;67.25;100421.41;5120103;28;922;-45
2021/06/21 12:21:36;;;;;;;;;;;;;;;20.00;67.03;100421.72;5101945;28;824;-47
2021/06/21 12:24:14;;;;;;;;;;;;;;;20.27;68.12;100413.75;5105431;28;1118;-44
2021/06/21 12:26:39;;;;;;;;;;;;;;;20.43;68.64;100415.09;5119879;28;735;-44
2021/06/21 12:29:18;;;;;;;;;;;;;;;20.49;67.26;100411.06;5119848;28;1913;-44
2021/06/21 12:32:09;;;;;;;;;;;;;;;20.48;65.01;100417.75;5119273;28;962;-47
2021/06/21 12:34:38;;;;;;;;;;;;;;;20.20;63.83;100413.34;5116154;28;1604;-46
2021/06/21 12:37:13;;;;;;;;;;;;;;;20.15;62.53;100406.81;5119806;28;798;-44
2021/06/21 12:39:38;;;;;;;;;;;;;;;20.08;63.28;100409.16;5119353;28;807;-46
2021/06/21 12:42:10;;;;;;;;;;;;;;;20.00;64.67;100413.44;5119670;28;799;-48
2021/06/21 12:44:36;;;;;;;;;;;;;;;20.28;65.00;100401.59;5116686;28;863;-45
2021/06/21 12:47:12;;;;;;;;;;;;;;;20.23;65.83;100402.53;5118719;28;962;-44
2021/06/21 12:49:37;;;;;;;;;;;;;;;20.30;66.88;100407.63;5101290;28;1938;-45
2021/06/21 12:52:03;;;;;;;;;;;;;;;20.47;67.69;100413.34;5101034;28;1062;-45
2021/06/21 12:54:30;;;;;;;;;;;;;;;20.40;68.48;100412.09;5101200;28;811;-43
2021/06/21 12:56:56;;;;;;;;;;;;;;;20.28;67.45;100415.41;5101529;28;855;-48
2021/06/21 12:59:28;;;;;;;;;;;;;;;20.48;64.42;100419.66;5119472;28;763;-44
2021/06/21 13:01:54;;;;;;;;;;;;;;;20.36;61.56;100420.22;5118688;28;942;-43